This is the latest recevied weather packets stored in our database for station/object EA1DB-1. If no packets are shown the sender has not sent any weather packets the latest 10 day(s).
| Time | Temp. | Humidity | Pressure | Rain* | Wind** | Luminosity | Snow |
|---|---|---|---|---|---|---|---|
| 1778136374 | 10.56° C | 77% | 1006.1 hPa | 0 mm | - | - | - |
| 1778135174 | 10.56° C | 77% | 1006.2 hPa | 0 mm | - | - | - |
| 1778127973 | 10.56° C | 77% | 1006.3 hPa | 0 mm | - | - | - |
| 1778127419 | 10.56° C | 77% | 1006.4 hPa | 0 mm | - | - | - |
| 1778125038 | 10.56° C | 77% | 1006.5 hPa | 0 mm | - | - | - |
| 1778118997 | 11.67° C | 72% | 1006.9 hPa | 0 mm | - | - | - |
| 1778118374 | 12.22° C | 72% | 1006.9 hPa | 0 mm | - | - | - |
| 1778116618 | 12.22° C | 71% | 1007.2 hPa | 0 mm | - | - | - |
| 1778113574 | 13.33° C | 68% | 1007.5 hPa | 0 mm | - | - | - |
| 1778107573 | 13.89° C | 65% | 1008.1 hPa | 0 mm | - | - | - |
| 1778106373 | 14.44° C | 65% | 1008.2 hPa | 0 mm | - | - | - |
| 1778105797 | 14.44° C | 65% | 1008.1 hPa | 0 mm | - | - | - |
| 1778095573 | 16.11° C | 57% | 1008.4 hPa | 0 mm | - | - | - |
| 1778093174 | 16.11° C | 55% | 1008.1 hPa | 0 mm | - | - | - |
| 1778078197 | 16.67° C | 60% | 1009.8 hPa | 0 mm | - | - | - |
| 1778076373 | 17.22° C | 58% | 1010.3 hPa | 0 mm | - | - | - |
| 1778074597 | 18.33° C | 57% | 1010.5 hPa | 0 mm | - | - | - |
| 1778070997 | 18.89° C | 53% | 1010.4 hPa | 0 mm | - | - | - |
| 1778069817 | 18.89° C | 48% | 1010.6 hPa | 0 mm | - | - | - |
| 1778066773 | 18.89° C | 48% | 1011 hPa | 0 mm | - | - | - |
| 1778066217 | 18.33° C | 48% | 1011.1 hPa | 0 mm | - | - | - |
| 1778060197 | 17.22° C | 52% | 1011.3 hPa | 0 mm | - | - | - |
| 1778059593 | 16.67° C | 52% | 1011.4 hPa | 0 mm | - | - | - |
| 1778058545 | 16.67° C | 56% | 1011.3 hPa | 0 mm | - | - | - |
| 1778054237 | 14.44° C | 67% | 1011.4 hPa | 0 mm | - | - | - |
* Rain latest hour (hover to see other rain measurements)
** Current wind speed in m/s (hover to see current wind gust speed)